sensor_id;sensor_type;location;lat;lon;timestamp;P1;durP1;ratioP1;P2;durP2;ratioP2
10977;SDS011;5542;48.272;10.794;2022-12-11T00:01:25;9.70;;;7.07;;
10977;SDS011;5542;48.272;10.794;2022-12-11T00:03:52;9.68;;;7.45;;
10977;SDS011;5542;48.272;10.794;2022-12-11T00:06:19;9.30;;;7.53;;
10977;SDS011;5542;48.272;10.794;2022-12-11T00:08:49;11.70;;;8.50;;
10977;SDS011;5542;48.272;10.794;2022-12-11T00:11:18;9.80;;;7.25;;
10977;SDS011;5542;48.272;10.794;2022-12-11T00:13:46;8.80;;;6.97;;
10977;SDS011;5542;48.272;10.794;2022-12-11T00:16:12;10.60;;;7.50;;
10977;SDS011;5542;48.272;10.794;2022-12-11T00:18:39;8.55;;;6.72;;
10977;SDS011;5542;48.272;10.794;2022-12-11T00:21:07;10.25;;;7.40;;
10977;SDS011;5542;48.272;10.794;2022-12-11T00:23:36;11.07;;;7.97;;
10977;SDS011;5542;48.272;10.794;2022-12-11T00:26:04;11.23;;;8.55;;
10977;SDS011;5542;48.272;10.794;2022-12-11T00:28:33;10.43;;;8.48;;
10977;SDS011;5542;48.272;10.794;2022-12-11T00:31:01;10.77;;;7.68;;
10977;SDS011;5542;48.272;10.794;2022-12-11T00:33:29;8.85;;;7.38;;
10977;SDS011;5542;48.272;10.794;2022-12-11T00:35:55;9.13;;;6.95;;
10977;SDS011;5542;48.272;10.794;2022-12-11T00:38:22;9.27;;;7.03;;
10977;SDS011;5542;48.272;10.794;2022-12-11T00:40:49;14.13;;;9.75;;
10977;SDS011;5542;48.272;10.794;2022-12-11T00:43:15;15.18;;;10.73;;
10977;SDS011;5542;48.272;10.794;2022-12-11T00:45:44;10.85;;;7.93;;
10977;SDS011;5542;48.272;10.794;2022-12-11T00:48:12;10.57;;;8.02;;
10977;SDS011;5542;48.272;10.794;2022-12-11T00:50:39;9.88;;;7.32;;
10977;SDS011;5542;48.272;10.794;2022-12-11T00:53:06;9.27;;;7.20;;
10977;SDS011;5542;48.272;10.794;2022-12-11T00:55:35;10.13;;;7.30;;
10977;SDS011;5542;48.272;10.794;2022-12-11T00:58:02;9.80;;;6.30;;
10977;SDS011;5542;48.272;10.794;2022-12-11T01:00:29;9.38;;;7.03;;
10977;SDS011;5542;48.272;10.794;2022-12-11T01:02:57;9.23;;;6.22;;
10977;SDS011;5542;48.272;10.794;2022-12-11T01:05:24;8.13;;;6.03;;
10977;SDS011;5542;48.272;10.794;2022-12-11T01:07:50;8.05;;;6.60;;
10977;SDS011;5542;48.272;10.794;2022-12-11T01:10:17;9.40;;;7.10;;
10977;SDS011;5542;48.272;10.794;2022-12-11T01:12:48;9.10;;;6.18;;
10977;SDS011;5542;48.272;10.794;2022-12-11T01:15:15;10.38;;;8.00;;
10977;SDS011;5542;48.272;10.794;2022-12-11T01:17:42;8.57;;;6.40;;
10977;SDS011;5542;48.272;10.794;2022-12-11T01:20:10;9.45;;;7.55;;
10977;SDS011;5542;48.272;10.794;2022-12-11T01:22:38;8.38;;;6.65;;
10977;SDS011;5542;48.272;10.794;2022-12-11T01:25:05;7.75;;;6.43;;
10977;SDS011;5542;48.272;10.794;2022-12-11T01:27:33;9.75;;;7.05;;
10977;SDS011;5542;48.272;10.794;2022-12-11T01:30:00;9.38;;;7.03;;
10977;SDS011;5542;48.272;10.794;2022-12-11T01:32:26;8.93;;;7.00;;
10977;SDS011;5542;48.272;10.794;2022-12-11T01:34:54;9.15;;;7.18;;
10977;SDS011;5542;48.272;10.794;2022-12-11T01:37:21;8.88;;;7.03;;
10977;SDS011;5542;48.272;10.794;2022-12-11T01:39:48;8.23;;;6.72;;
10977;SDS011;5542;48.272;10.794;2022-12-11T01:42:15;9.23;;;6.88;;
10977;SDS011;5542;48.272;10.794;2022-12-11T01:47:54;9.05;;;6.80;;
10977;SDS011;5542;48.272;10.794;2022-12-11T01:50:26;7.65;;;5.38;;
10977;SDS011;5542;48.272;10.794;2022-12-11T01:52:54;9.18;;;6.35;;
10977;SDS011;5542;48.272;10.794;2022-12-11T01:55:21;8.80;;;6.90;;
10977;SDS011;5542;48.272;10.794;2022-12-11T01:57:48;8.52;;;6.57;;
10977;SDS011;5542;48.272;10.794;2022-12-11T02:00:17;8.73;;;6.40;;
10977;SDS011;5542;48.272;10.794;2022-12-11T02:02:45;7.18;;;5.88;;
10977;SDS011;5542;48.272;10.794;2022-12-11T02:05:11;6.80;;;5.50;;
10977;SDS011;5542;48.272;10.794;2022-12-11T02:07:39;7.97;;;5.90;;
10977;SDS011;5542;48.272;10.794;2022-12-11T02:10:10;11.55;;;8.35;;
10977;SDS011;5542;48.272;10.794;2022-12-11T02:12:39;8.20;;;6.50;;
10977;SDS011;5542;48.272;10.794;2022-12-11T02:15:14;8.57;;;6.47;;
10977;SDS011;5542;48.272;10.794;2022-12-11T02:17:50;9.15;;;6.95;;
10977;SDS011;5542;48.272;10.794;2022-12-11T02:20:26;7.90;;;5.85;;
10977;SDS011;5542;48.272;10.794;2022-12-11T02:23:10;7.38;;;5.65;;
10977;SDS011;5542;48.272;10.794;2022-12-11T02:25:51;7.27;;;5.53;;
10977;SDS011;5542;48.272;10.794;2022-12-11T02:28:28;9.80;;;7.05;;
10977;SDS011;5542;48.272;10.794;2022-12-11T02:30:58;8.88;;;7.10;;
10977;SDS011;5542;48.272;10.794;2022-12-11T02:33:29;9.77;;;7.50;;
10977;SDS011;5542;48.272;10.794;2022-12-11T02:36:09;8.13;;;6.20;;
10977;SDS011;5542;48.272;10.794;2022-12-11T02:38:39;8.17;;;6.00;;
10977;SDS011;5542;48.272;10.794;2022-12-11T02:41:08;8.10;;;6.40;;
10977;SDS011;5542;48.272;10.794;2022-12-11T02:43:38;8.95;;;7.18;;
10977;SDS011;5542;48.272;10.794;2022-12-11T02:46:07;10.05;;;7.50;;
10977;SDS011;5542;48.272;10.794;2022-12-11T02:48:35;10.75;;;8.05;;
10977;SDS011;5542;48.272;10.794;2022-12-11T02:51:02;10.10;;;7.53;;
10977;SDS011;5542;48.272;10.794;2022-12-11T02:53:31;10.50;;;7.60;;
10977;SDS011;5542;48.272;10.794;2022-12-11T02:56:05;10.33;;;7.30;;
10977;SDS011;5542;48.272;10.794;2022-12-11T02:58:36;10.18;;;8.10;;
10977;SDS011;5542;48.272;10.794;2022-12-11T03:01:11;9.32;;;7.15;;
10977;SDS011;5542;48.272;10.794;2022-12-11T03:03:37;8.80;;;6.85;;
10977;SDS011;5542;48.272;10.794;2022-12-11T03:06:04;8.37;;;6.60;;
10977;SDS011;5542;48.272;10.794;2022-12-11T03:08:31;7.40;;;6.00;;
10977;SDS011;5542;48.272;10.794;2022-12-11T03:10:58;7.93;;;6.20;;
10977;SDS011;5542;48.272;10.794;2022-12-11T03:13:24;8.45;;;6.70;;
10977;SDS011;5542;48.272;10.794;2022-12-11T03:15:56;7.65;;;5.70;;
10977;SDS011;5542;48.272;10.794;2022-12-11T03:18:33;9.45;;;6.90;;
10977;SDS011;5542;48.272;10.794;2022-12-11T03:21:06;7.72;;;6.43;;
10977;SDS011;5542;48.272;10.794;2022-12-11T03:23:39;7.65;;;6.28;;
10977;SDS011;5542;48.272;10.794;2022-12-11T03:26:13;8.95;;;7.07;;
10977;SDS011;5542;48.272;10.794;2022-12-11T03:28:43;8.45;;;6.97;;
10977;SDS011;5542;48.272;10.794;2022-12-11T03:31:14;9.75;;;7.10;;
10977;SDS011;5542;48.272;10.794;2022-12-11T03:33:47;8.55;;;6.82;;
10977;SDS011;5542;48.272;10.794;2022-12-11T03:36:18;6.22;;;5.60;;
10977;SDS011;5542;48.272;10.794;2022-12-11T03:38:49;7.53;;;5.90;;
10977;SDS011;5542;48.272;10.794;2022-12-11T03:41:19;7.45;;;5.85;;
10977;SDS011;5542;48.272;10.794;2022-12-11T03:43:50;7.35;;;5.75;;
10977;SDS011;5542;48.272;10.794;2022-12-11T03:46:21;7.75;;;6.07;;
10977;SDS011;5542;48.272;10.794;2022-12-11T03:48:50;6.63;;;5.32;;
10977;SDS011;5542;48.272;10.794;2022-12-11T03:51:21;7.30;;;5.50;;
10977;SDS011;5542;48.272;10.794;2022-12-11T03:53:49;9.77;;;7.40;;
10977;SDS011;5542;48.272;10.794;2022-12-11T03:56:17;8.80;;;6.80;;
10977;SDS011;5542;48.272;10.794;2022-12-11T03:58:45;7.72;;;5.90;;
10977;SDS011;5542;48.272;10.794;2022-12-11T04:01:12;5.93;;;5.32;;
10977;SDS011;5542;48.272;10.794;2022-12-11T04:03:40;7.40;;;5.70;;
10977;SDS011;5542;48.272;10.794;2022-12-11T04:06:06;6.60;;;5.43;;
10977;SDS011;5542;48.272;10.794;2022-12-11T04:08:33;8.52;;;6.40;;
10977;SDS011;5542;48.272;10.794;2022-12-11T04:11:01;8.18;;;6.20;;
10977;SDS011;5542;48.272;10.794;2022-12-11T04:13:46;8.18;;;5.95;;
10977;SDS011;5542;48.272;10.794;2022-12-11T04:16:33;7.97;;;6.30;;
10977;SDS011;5542;48.272;10.794;2022-12-11T04:19:00;7.50;;;6.10;;
10977;SDS011;5542;48.272;10.794;2022-12-11T04:21:44;7.03;;;5.55;;
10977;SDS011;5542;48.272;10.794;2022-12-11T04:24:28;5.80;;;5.15;;
10977;SDS011;5542;48.272;10.794;2022-12-11T04:26:54;7.65;;;5.93;;
10977;SDS011;5542;48.272;10.794;2022-12-11T04:29:21;8.85;;;6.15;;
10977;SDS011;5542;48.272;10.794;2022-12-11T04:31:47;7.47;;;6.00;;
10977;SDS011;5542;48.272;10.794;2022-12-11T04:34:16;7.97;;;6.03;;
10977;SDS011;5542;48.272;10.794;2022-12-11T04:36:42;6.05;;;5.15;;
10977;SDS011;5542;48.272;10.794;2022-12-11T04:39:09;7.00;;;5.45;;
10977;SDS011;5542;48.272;10.794;2022-12-11T04:41:35;7.88;;;5.63;;
10977;SDS011;5542;48.272;10.794;2022-12-11T04:44:03;8.98;;;6.38;;
10977;SDS011;5542;48.272;10.794;2022-12-11T04:46:30;7.28;;;5.60;;
10977;SDS011;5542;48.272;10.794;2022-12-11T04:48:57;8.18;;;6.25;;
10977;SDS011;5542;48.272;10.794;2022-12-11T04:51:25;10.25;;;7.35;;
10977;SDS011;5542;48.272;10.794;2022-12-11T04:53:53;9.23;;;6.88;;
10977;SDS011;5542;48.272;10.794;2022-12-11T04:56:20;9.00;;;6.60;;
10977;SDS011;5542;48.272;10.794;2022-12-11T04:58:47;8.03;;;6.60;;
10977;SDS011;5542;48.272;10.794;2022-12-11T05:01:14;7.85;;;5.70;;
10977;SDS011;5542;48.272;10.794;2022-12-11T05:03:42;7.45;;;6.22;;
10977;SDS011;5542;48.272;10.794;2022-12-11T05:06:10;9.07;;;6.50;;
10977;SDS011;5542;48.272;10.794;2022-12-11T05:08:39;7.63;;;6.15;;
10977;SDS011;5542;48.272;10.794;2022-12-11T05:11:07;8.10;;;6.53;;
10977;SDS011;5542;48.272;10.794;2022-12-11T05:13:35;8.38;;;6.50;;
10977;SDS011;5542;48.272;10.794;2022-12-11T05:16:02;7.85;;;6.47;;
10977;SDS011;5542;48.272;10.794;2022-12-11T05:18:29;7.95;;;6.15;;
10977;SDS011;5542;48.272;10.794;2022-12-11T05:20:56;7.78;;;6.30;;
10977;SDS011;5542;48.272;10.794;2022-12-11T05:23:24;8.03;;;6.27;;
10977;SDS011;5542;48.272;10.794;2022-12-11T05:25:53;8.95;;;6.45;;
10977;SDS011;5542;48.272;10.794;2022-12-11T05:28:21;8.52;;;6.10;;
10977;SDS011;5542;48.272;10.794;2022-12-11T05:30:53;7.10;;;6.05;;
10977;SDS011;5542;48.272;10.794;2022-12-11T05:33:20;8.35;;;6.40;;
10977;SDS011;5542;48.272;10.794;2022-12-11T05:35:47;7.80;;;6.03;;
10977;SDS011;5542;48.272;10.794;2022-12-11T05:38:14;6.88;;;5.78;;
10977;SDS011;5542;48.272;10.794;2022-12-11T05:40:41;8.23;;;5.88;;
10977;SDS011;5542;48.272;10.794;2022-12-11T05:43:09;8.38;;;6.13;;
10977;SDS011;5542;48.272;10.794;2022-12-11T05:45:36;7.78;;;6.28;;
10977;SDS011;5542;48.272;10.794;2022-12-11T05:48:03;7.73;;;6.20;;
10977;SDS011;5542;48.272;10.794;2022-12-11T05:50:29;7.50;;;5.88;;
10977;SDS011;5542;48.272;10.794;2022-12-11T05:52:57;12.75;;;9.00;;
10977;SDS011;5542;48.272;10.794;2022-12-11T05:55:23;7.80;;;6.00;;
10977;SDS011;5542;48.272;10.794;2022-12-11T05:57:50;7.95;;;5.90;;
10977;SDS011;5542;48.272;10.794;2022-12-11T06:00:18;10.70;;;7.88;;
10977;SDS011;5542;48.272;10.794;2022-12-11T06:02:44;10.60;;;8.00;;
10977;SDS011;5542;48.272;10.794;2022-12-11T06:05:11;10.10;;;7.40;;
10977;SDS011;5542;48.272;10.794;2022-12-11T06:07:38;7.70;;;6.20;;
10977;SDS011;5542;48.272;10.794;2022-12-11T06:10:04;7.82;;;6.50;;
10977;SDS011;5542;48.272;10.794;2022-12-11T06:12:32;7.38;;;6.20;;
10977;SDS011;5542;48.272;10.794;2022-12-11T06:14:58;8.00;;;5.85;;
10977;SDS011;5542;48.272;10.794;2022-12-11T06:17:26;8.40;;;6.93;;
10977;SDS011;5542;48.272;10.794;2022-12-11T06:19:53;8.73;;;6.70;;
10977;SDS011;5542;48.272;10.794;2022-12-11T06:22:19;10.13;;;7.57;;
10977;SDS011;5542;48.272;10.794;2022-12-11T06:24:46;7.40;;;5.70;;
10977;SDS011;5542;48.272;10.794;2022-12-11T06:27:13;8.73;;;6.93;;
10977;SDS011;5542;48.272;10.794;2022-12-11T06:29:39;8.55;;;6.80;;
10977;SDS011;5542;48.272;10.794;2022-12-11T06:32:06;8.70;;;6.95;;
10977;SDS011;5542;48.272;10.794;2022-12-11T06:34:34;9.27;;;6.78;;
10977;SDS011;5542;48.272;10.794;2022-12-11T06:37:00;8.40;;;6.35;;
10977;SDS011;5542;48.272;10.794;2022-12-11T06:39:27;9.35;;;6.88;;
10977;SDS011;5542;48.272;10.794;2022-12-11T06:41:54;9.90;;;7.63;;
10977;SDS011;5542;48.272;10.794;2022-12-11T06:44:20;8.20;;;6.80;;
10977;SDS011;5542;48.272;10.794;2022-12-11T06:46:47;9.45;;;7.68;;
10977;SDS011;5542;48.272;10.794;2022-12-11T06:49:13;11.82;;;9.55;;
10977;SDS011;5542;48.272;10.794;2022-12-11T06:51:41;10.57;;;8.43;;
10977;SDS011;5542;48.272;10.794;2022-12-11T06:54:08;9.88;;;8.27;;
10977;SDS011;5542;48.272;10.794;2022-12-11T06:56:34;9.65;;;7.50;;
10977;SDS011;5542;48.272;10.794;2022-12-11T06:59:01;9.43;;;7.60;;
10977;SDS011;5542;48.272;10.794;2022-12-11T07:01:27;7.53;;;6.13;;
10977;SDS011;5542;48.272;10.794;2022-12-11T07:03:55;6.68;;;5.57;;
10977;SDS011;5542;48.272;10.794;2022-12-11T07:06:23;7.47;;;6.32;;
10977;SDS011;5542;48.272;10.794;2022-12-11T07:08:52;6.35;;;5.45;;
10977;SDS011;5542;48.272;10.794;2022-12-11T07:11:19;10.65;;;6.97;;
10977;SDS011;5542;48.272;10.794;2022-12-11T07:13:46;9.48;;;7.32;;
10977;SDS011;5542;48.272;10.794;2022-12-11T07:16:14;9.97;;;6.87;;
10977;SDS011;5542;48.272;10.794;2022-12-11T07:18:42;8.52;;;6.68;;
10977;SDS011;5542;48.272;10.794;2022-12-11T07:21:13;9.38;;;6.95;;
10977;SDS011;5542;48.272;10.794;2022-12-11T07:23:41;11.10;;;8.10;;
10977;SDS011;5542;48.272;10.794;2022-12-11T07:26:09;8.80;;;7.13;;
10977;SDS011;5542;48.272;10.794;2022-12-11T07:28:37;9.57;;;7.55;;
10977;SDS011;5542;48.272;10.794;2022-12-11T07:31:05;11.63;;;6.97;;
10977;SDS011;5542;48.272;10.794;2022-12-11T07:33:32;8.45;;;6.43;;
10977;SDS011;5542;48.272;10.794;2022-12-11T07:35:59;9.55;;;6.13;;
10977;SDS011;5542;48.272;10.794;2022-12-11T07:38:26;9.82;;;6.60;;
10977;SDS011;5542;48.272;10.794;2022-12-11T07:40:53;10.15;;;7.70;;
10977;SDS011;5542;48.272;10.794;2022-12-11T07:43:21;8.50;;;6.53;;
10977;SDS011;5542;48.272;10.794;2022-12-11T07:45:47;9.43;;;6.93;;
10977;SDS011;5542;48.272;10.794;2022-12-11T07:48:14;9.05;;;6.22;;
10977;SDS011;5542;48.272;10.794;2022-12-11T07:50:40;9.25;;;6.57;;
10977;SDS011;5542;48.272;10.794;2022-12-11T07:53:07;8.95;;;6.28;;
10977;SDS011;5542;48.272;10.794;2022-12-11T07:55:34;7.93;;;6.65;;
10977;SDS011;5542;48.272;10.794;2022-12-11T07:58:00;7.55;;;6.20;;
10977;SDS011;5542;48.272;10.794;2022-12-11T08:00:28;7.13;;;6.03;;
10977;SDS011;5542;48.272;10.794;2022-12-11T08:02:55;8.38;;;6.13;;
10977;SDS011;5542;48.272;10.794;2022-12-11T08:05:21;7.88;;;6.10;;
10977;SDS011;5542;48.272;10.794;2022-12-11T08:07:48;8.20;;;6.57;;
10977;SDS011;5542;48.272;10.794;2022-12-11T08:10:15;9.55;;;6.93;;
10977;SDS011;5542;48.272;10.794;2022-12-11T08:12:42;9.48;;;6.80;;
10977;SDS011;5542;48.272;10.794;2022-12-11T08:15:09;7.65;;;6.22;;
10977;SDS011;5542;48.272;10.794;2022-12-11T08:17:37;7.20;;;6.03;;
10977;SDS011;5542;48.272;10.794;2022-12-11T08:20:04;8.35;;;7.13;;
10977;SDS011;5542;48.272;10.794;2022-12-11T08:22:31;8.75;;;7.03;;
10977;SDS011;5542;48.272;10.794;2022-12-11T08:24:57;8.70;;;6.90;;
10977;SDS011;5542;48.272;10.794;2022-12-11T08:27:24;7.60;;;6.18;;
10977;SDS011;5542;48.272;10.794;2022-12-11T08:29:50;8.55;;;6.78;;
10977;SDS011;5542;48.272;10.794;2022-12-11T08:32:17;8.43;;;6.53;;
10977;SDS011;5542;48.272;10.794;2022-12-11T08:34:45;11.75;;;8.57;;
10977;SDS011;5542;48.272;10.794;2022-12-11T08:37:11;9.35;;;7.10;;
10977;SDS011;5542;48.272;10.794;2022-12-11T08:39:38;8.05;;;6.10;;
10977;SDS011;5542;48.272;10.794;2022-12-11T08:42:05;8.45;;;6.65;;
10977;SDS011;5542;48.272;10.794;2022-12-11T08:44:32;8.95;;;6.20;;
10977;SDS011;5542;48.272;10.794;2022-12-11T08:46:58;12.48;;;9.57;;
10977;SDS011;5542;48.272;10.794;2022-12-11T08:49:25;7.65;;;6.57;;
10977;SDS011;5542;48.272;10.794;2022-12-11T08:51:53;7.22;;;5.95;;
10977;SDS011;5542;48.272;10.794;2022-12-11T08:54:20;8.68;;;6.55;;
10977;SDS011;5542;48.272;10.794;2022-12-11T08:56:46;8.05;;;5.93;;
10977;SDS011;5542;48.272;10.794;2022-12-11T08:59:13;9.70;;;6.73;;
10977;SDS011;5542;48.272;10.794;2022-12-11T09:01:39;5.88;;;5.28;;
10977;SDS011;5542;48.272;10.794;2022-12-11T09:04:06;5.90;;;5.03;;
10977;SDS011;5542;48.272;10.794;2022-12-11T09:06:32;6.82;;;5.60;;
10977;SDS011;5542;48.272;10.794;2022-12-11T09:09:00;7.03;;;5.83;;
10977;SDS011;5542;48.272;10.794;2022-12-11T09:11:30;7.55;;;5.70;;
10977;SDS011;5542;48.272;10.794;2022-12-11T09:13:58;5.45;;;4.85;;
10977;SDS011;5542;48.272;10.794;2022-12-11T09:16:25;6.03;;;5.20;;
10977;SDS011;5542;48.272;10.794;2022-12-11T09:18:53;7.65;;;5.53;;
10977;SDS011;5542;48.272;10.794;2022-12-11T09:21:21;6.38;;;5.15;;
10977;SDS011;5542;48.272;10.794;2022-12-11T09:23:51;6.05;;;5.03;;
10977;SDS011;5542;48.272;10.794;2022-12-11T09:26:20;5.93;;;5.18;;
10977;SDS011;5542;48.272;10.794;2022-12-11T09:28:46;6.40;;;4.90;;
10977;SDS011;5542;48.272;10.794;2022-12-11T09:31:16;5.88;;;4.80;;
10977;SDS011;5542;48.272;10.794;2022-12-11T09:33:44;6.45;;;5.30;;
10977;SDS011;5542;48.272;10.794;2022-12-11T09:36:11;6.07;;;5.07;;
10977;SDS011;5542;48.272;10.794;2022-12-11T09:38:38;6.15;;;5.05;;
10977;SDS011;5542;48.272;10.794;2022-12-11T09:41:14;6.18;;;4.70;;
10977;SDS011;5542;48.272;10.794;2022-12-11T09:43:58;5.47;;;4.50;;
10977;SDS011;5542;48.272;10.794;2022-12-11T09:46:32;6.10;;;5.15;;
10977;SDS011;5542;48.272;10.794;2022-12-11T09:49:01;5.65;;;4.72;;
10977;SDS011;5542;48.272;10.794;2022-12-11T09:51:29;5.78;;;5.05;;
10977;SDS011;5542;48.272;10.794;2022-12-11T09:54:08;6.95;;;4.43;;
10977;SDS011;5542;48.272;10.794;2022-12-11T09:56:41;5.53;;;4.65;;
10977;SDS011;5542;48.272;10.794;2022-12-11T09:59:18;6.33;;;5.20;;
10977;SDS011;5542;48.272;10.794;2022-12-11T10:01:54;5.70;;;4.32;;
10977;SDS011;5542;48.272;10.794;2022-12-11T10:04:30;5.55;;;4.53;;
10977;SDS011;5542;48.272;10.794;2022-12-11T10:07:09;5.00;;;4.35;;
10977;SDS011;5542;48.272;10.794;2022-12-11T10:09:42;5.53;;;4.65;;
10977;SDS011;5542;48.272;10.794;2022-12-11T10:12:20;5.63;;;4.57;;
10977;SDS011;5542;48.272;10.794;2022-12-11T10:17:52;5.47;;;4.72;;
10977;SDS011;5542;48.272;10.794;2022-12-11T10:20:21;6.35;;;5.03;;
10977;SDS011;5542;48.272;10.794;2022-12-11T10:22:51;5.93;;;4.50;;
10977;SDS011;5542;48.272;10.794;2022-12-11T10:25:20;5.30;;;4.50;;
10977;SDS011;5542;48.272;10.794;2022-12-11T10:27:51;5.82;;;4.90;;
10977;SDS011;5542;48.272;10.794;2022-12-11T10:30:18;5.45;;;4.38;;
10977;SDS011;5542;48.272;10.794;2022-12-11T10:32:49;6.10;;;4.55;;
10977;SDS011;5542;48.272;10.794;2022-12-11T10:35:25;6.90;;;5.20;;
10977;SDS011;5542;48.272;10.794;2022-12-11T10:37:57;5.30;;;4.53;;
10977;SDS011;5542;48.272;10.794;2022-12-11T10:40:35;6.88;;;4.72;;
10977;SDS011;5542;48.272;10.794;2022-12-11T10:43:06;5.82;;;4.65;;
10977;SDS011;5542;48.272;10.794;2022-12-11T10:45:32;8.05;;;5.05;;
10977;SDS011;5542;48.272;10.794;2022-12-11T10:48:03;6.53;;;5.43;;
10977;SDS011;5542;48.272;10.794;2022-12-11T10:50:30;5.32;;;4.47;;
10977;SDS011;5542;48.272;10.794;2022-12-11T10:52:58;6.55;;;5.22;;
10977;SDS011;5542;48.272;10.794;2022-12-11T10:55:26;6.28;;;4.70;;
10977;SDS011;5542;48.272;10.794;2022-12-11T10:57:56;5.35;;;4.55;;
10977;SDS011;5542;48.272;10.794;2022-12-11T11:00:33;6.93;;;5.57;;
10977;SDS011;5542;48.272;10.794;2022-12-11T11:03:02;8.38;;;6.88;;
10977;SDS011;5542;48.272;10.794;2022-12-11T11:05:31;8.85;;;6.25;;
10977;SDS011;5542;48.272;10.794;2022-12-11T11:08:10;5.28;;;4.22;;
10977;SDS011;5542;48.272;10.794;2022-12-11T11:10:48;4.68;;;4.15;;
10977;SDS011;5542;48.272;10.794;2022-12-11T11:13:19;5.78;;;4.60;;
10977;SDS011;5542;48.272;10.794;2022-12-11T11:15:58;4.70;;;4.23;;
10977;SDS011;5542;48.272;10.794;2022-12-11T11:18:26;4.20;;;3.70;;
10977;SDS011;5542;48.272;10.794;2022-12-11T11:20:54;10.53;;;6.17;;
10977;SDS011;5542;48.272;10.794;2022-12-11T11:23:21;4.97;;;3.72;;
10977;SDS011;5542;48.272;10.794;2022-12-11T11:25:51;3.90;;;3.50;;
10977;SDS011;5542;48.272;10.794;2022-12-11T11:28:20;4.10;;;3.63;;
10977;SDS011;5542;48.272;10.794;2022-12-11T11:31:01;4.88;;;3.90;;
10977;SDS011;5542;48.272;10.794;2022-12-11T11:33:30;5.00;;;3.80;;
10977;SDS011;5542;48.272;10.794;2022-12-11T11:35:59;5.75;;;4.45;;
10977;SDS011;5542;48.272;10.794;2022-12-11T11:38:28;5.63;;;4.15;;
10977;SDS011;5542;48.272;10.794;2022-12-11T11:41:04;5.03;;;4.00;;
10977;SDS011;5542;48.272;10.794;2022-12-11T11:43:42;5.53;;;4.20;;
10977;SDS011;5542;48.272;10.794;2022-12-11T11:46:14;4.87;;;4.00;;
10977;SDS011;5542;48.272;10.794;2022-12-11T11:48:48;3.85;;;3.40;;
10977;SDS011;5542;48.272;10.794;2022-12-11T11:51:20;6.97;;;5.05;;
10977;SDS011;5542;48.272;10.794;2022-12-11T11:53:53;5.97;;;4.57;;
10977;SDS011;5542;48.272;10.794;2022-12-11T11:56:24;3.83;;;3.50;;
10977;SDS011;5542;48.272;10.794;2022-12-11T11:58:55;6.97;;;5.40;;
10977;SDS011;5542;48.272;10.794;2022-12-11T12:01:28;6.47;;;4.75;;
10977;SDS011;5542;48.272;10.794;2022-12-11T12:03:55;4.63;;;3.95;;
10977;SDS011;5542;48.272;10.794;2022-12-11T12:06:27;5.82;;;5.22;;
10977;SDS011;5542;48.272;10.794;2022-12-11T12:09:02;6.47;;;5.38;;
10977;SDS011;5542;48.272;10.794;2022-12-11T12:11:38;6.38;;;4.95;;
10977;SDS011;5542;48.272;10.794;2022-12-11T12:14:12;6.50;;;4.97;;
10977;SDS011;5542;48.272;10.794;2022-12-11T12:16:46;4.85;;;4.30;;
10977;SDS011;5542;48.272;10.794;2022-12-11T12:19:29;4.68;;;4.18;;
10977;SDS011;5542;48.272;10.794;2022-12-11T12:22:08;4.95;;;4.43;;
10977;SDS011;5542;48.272;10.794;2022-12-11T12:24:48;4.35;;;3.58;;
10977;SDS011;5542;48.272;10.794;2022-12-11T12:29:51;5.77;;;4.87;;
10977;SDS011;5542;48.272;10.794;2022-12-11T12:32:29;7.20;;;5.28;;
10977;SDS011;5542;48.272;10.794;2022-12-11T12:35:08;5.18;;;4.15;;
10977;SDS011;5542;48.272;10.794;2022-12-11T12:37:56;5.07;;;4.10;;
10977;SDS011;5542;48.272;10.794;2022-12-11T12:40:28;4.80;;;4.18;;
10977;SDS011;5542;48.272;10.794;2022-12-11T12:43:00;4.93;;;4.35;;
10977;SDS011;5542;48.272;10.794;2022-12-11T12:45:33;4.53;;;3.85;;
10977;SDS011;5542;48.272;10.794;2022-12-11T12:48:10;5.53;;;4.68;;
10977;SDS011;5542;48.272;10.794;2022-12-11T12:50:37;8.35;;;5.63;;
10977;SDS011;5542;48.272;10.794;2022-12-11T12:53:08;6.15;;;4.30;;
10977;SDS011;5542;48.272;10.794;2022-12-11T12:55:39;5.05;;;4.18;;
10977;SDS011;5542;48.272;10.794;2022-12-11T12:58:21;4.07;;;3.60;;
10977;SDS011;5542;48.272;10.794;2022-12-11T13:00:50;4.60;;;3.90;;
10977;SDS011;5542;48.272;10.794;2022-12-11T13:03:19;5.07;;;4.20;;
10977;SDS011;5542;48.272;10.794;2022-12-11T13:05:54;4.88;;;4.38;;
10977;SDS011;5542;48.272;10.794;2022-12-11T13:08:23;6.78;;;5.10;;
10977;SDS011;5542;48.272;10.794;2022-12-11T13:10:55;5.63;;;4.55;;
10977;SDS011;5542;48.272;10.794;2022-12-11T13:13:29;5.55;;;4.50;;
10977;SDS011;5542;48.272;10.794;2022-12-11T13:16:06;4.57;;;3.95;;
10977;SDS011;5542;48.272;10.794;2022-12-11T13:18:50;6.85;;;4.78;;
10977;SDS011;5542;48.272;10.794;2022-12-11T13:21:27;4.30;;;3.90;;
10977;SDS011;5542;48.272;10.794;2022-12-11T13:24:09;7.10;;;5.15;;
10977;SDS011;5542;48.272;10.794;2022-12-11T13:26:39;6.63;;;5.03;;
10977;SDS011;5542;48.272;10.794;2022-12-11T13:29:26;5.20;;;3.97;;
10977;SDS011;5542;48.272;10.794;2022-12-11T13:31:55;7.88;;;6.65;;
10977;SDS011;5542;48.272;10.794;2022-12-11T13:34:24;6.85;;;5.10;;
10977;SDS011;5542;48.272;10.794;2022-12-11T13:36:56;10.35;;;6.40;;
10977;SDS011;5542;48.272;10.794;2022-12-11T13:39:24;5.13;;;4.63;;
10977;SDS011;5542;48.272;10.794;2022-12-11T13:41:53;4.27;;;3.67;;
10977;SDS011;5542;48.272;10.794;2022-12-11T13:44:23;3.92;;;3.53;;
10977;SDS011;5542;48.272;10.794;2022-12-11T13:46:53;6.32;;;4.90;;
10977;SDS011;5542;48.272;10.794;2022-12-11T13:49:24;5.70;;;4.20;;
10977;SDS011;5542;48.272;10.794;2022-12-11T13:51:54;4.50;;;3.95;;
10977;SDS011;5542;48.272;10.794;2022-12-11T13:54:22;4.88;;;3.80;;
10977;SDS011;5542;48.272;10.794;2022-12-11T13:56:57;4.68;;;4.15;;
10977;SDS011;5542;48.272;10.794;2022-12-11T13:59:27;4.68;;;4.28;;
10977;SDS011;5542;48.272;10.794;2022-12-11T14:01:57;4.18;;;3.78;;
10977;SDS011;5542;48.272;10.794;2022-12-11T14:04:29;3.70;;;3.40;;
10977;SDS011;5542;48.272;10.794;2022-12-11T14:06:58;5.77;;;4.23;;
10977;SDS011;5542;48.272;10.794;2022-12-11T14:09:27;5.68;;;4.53;;
10977;SDS011;5542;48.272;10.794;2022-12-11T14:11:54;5.88;;;4.47;;
10977;SDS011;5542;48.272;10.794;2022-12-11T14:14:24;7.05;;;5.20;;
10977;SDS011;5542;48.272;10.794;2022-12-11T14:16:59;18.85;;;10.80;;
10977;SDS011;5542;48.272;10.794;2022-12-11T14:19:26;8.43;;;6.07;;
10977;SDS011;5542;48.272;10.794;2022-12-11T14:21:56;5.32;;;4.40;;
10977;SDS011;5542;48.272;10.794;2022-12-11T14:24:23;5.30;;;4.53;;
10977;SDS011;5542;48.272;10.794;2022-12-11T14:26:51;6.05;;;4.63;;
10977;SDS011;5542;48.272;10.794;2022-12-11T14:29:23;4.97;;;4.37;;
10977;SDS011;5542;48.272;10.794;2022-12-11T14:31:54;7.28;;;5.38;;
10977;SDS011;5542;48.272;10.794;2022-12-11T14:34:24;6.60;;;4.73;;
10977;SDS011;5542;48.272;10.794;2022-12-11T14:36:57;6.50;;;4.97;;
10977;SDS011;5542;48.272;10.794;2022-12-11T14:39:25;5.50;;;4.73;;
10977;SDS011;5542;48.272;10.794;2022-12-11T14:41:59;4.95;;;4.45;;
10977;SDS011;5542;48.272;10.794;2022-12-11T14:44:29;6.22;;;4.93;;
10977;SDS011;5542;48.272;10.794;2022-12-11T14:47:01;5.40;;;4.38;;
10977;SDS011;5542;48.272;10.794;2022-12-11T14:49:35;4.53;;;3.78;;
10977;SDS011;5542;48.272;10.794;2022-12-11T14:52:12;6.78;;;4.70;;
10977;SDS011;5542;48.272;10.794;2022-12-11T14:54:43;5.27;;;4.30;;
10977;SDS011;5542;48.272;10.794;2022-12-11T14:57:15;5.93;;;4.93;;
10977;SDS011;5542;48.272;10.794;2022-12-11T14:59:45;5.28;;;4.78;;
10977;SDS011;5542;48.272;10.794;2022-12-11T15:02:24;6.03;;;5.13;;
10977;SDS011;5542;48.272;10.794;2022-12-11T15:05:01;7.20;;;5.60;;
10977;SDS011;5542;48.272;10.794;2022-12-11T15:07:40;7.28;;;6.15;;
10977;SDS011;5542;48.272;10.794;2022-12-11T15:10:20;8.87;;;6.23;;